sensor_id;sensor_type;location;lat;lon;timestamp;P1;durP1;ratioP1;P2;durP2;ratioP2
34134;SDS011;20410;55.578;12.968;2024-01-11T00:00:04;12.63;;;9.63;;
34134;SDS011;20410;55.578;12.968;2024-01-11T00:02:30;13.37;;;9.63;;
34134;SDS011;20410;55.578;12.968;2024-01-11T00:04:55;12.50;;;9.87;;
34134;SDS011;20410;55.578;12.968;2024-01-11T00:07:21;14.37;;;10.67;;
34134;SDS011;20410;55.578;12.968;2024-01-11T00:09:47;14.93;;;10.23;;
34134;SDS011;20410;55.578;12.968;2024-01-11T00:12:12;13.40;;;10.33;;
34134;SDS011;20410;55.578;12.968;2024-01-11T00:14:38;14.13;;;10.63;;
34134;SDS011;20410;55.578;12.968;2024-01-11T00:17:03;15.37;;;11.40;;
34134;SDS011;20410;55.578;12.968;2024-01-11T00:19:29;13.53;;;9.90;;
34134;SDS011;20410;55.578;12.968;2024-01-11T00:21:54;14.60;;;10.93;;
34134;SDS011;20410;55.578;12.968;2024-01-11T00:24:20;14.37;;;11.20;;
34134;SDS011;20410;55.578;12.968;2024-01-11T00:26:45;17.20;;;12.50;;
34134;SDS011;20410;55.578;12.968;2024-01-11T00:29:11;15.33;;;11.43;;
34134;SDS011;20410;55.578;12.968;2024-01-11T00:31:37;17.47;;;11.70;;
34134;SDS011;20410;55.578;12.968;2024-01-11T00:34:03;15.27;;;11.53;;
34134;SDS011;20410;55.578;12.968;2024-01-11T00:36:29;18.67;;;13.67;;
34134;SDS011;20410;55.578;12.968;2024-01-11T00:38:55;17.20;;;13.47;;
34134;SDS011;20410;55.578;12.968;2024-01-11T00:41:21;17.83;;;13.80;;
34134;SDS011;20410;55.578;12.968;2024-01-11T00:43:46;17.70;;;13.23;;
34134;SDS011;20410;55.578;12.968;2024-01-11T00:46:12;20.30;;;14.33;;
34134;SDS011;20410;55.578;12.968;2024-01-11T00:48:37;20.03;;;13.70;;
34134;SDS011;20410;55.578;12.968;2024-01-11T00:51:04;17.57;;;12.50;;
34134;SDS011;20410;55.578;12.968;2024-01-11T00:53:30;19.77;;;14.73;;
34134;SDS011;20410;55.578;12.968;2024-01-11T00:56:01;21.77;;;14.60;;
34134;SDS011;20410;55.578;12.968;2024-01-11T00:58:27;21.10;;;15.33;;
34134;SDS011;20410;55.578;12.968;2024-01-11T01:00:53;22.20;;;15.77;;
34134;SDS011;20410;55.578;12.968;2024-01-11T01:03:22;21.73;;;14.90;;
34134;SDS011;20410;55.578;12.968;2024-01-11T01:05:47;20.10;;;13.40;;
34134;SDS011;20410;55.578;12.968;2024-01-11T01:08:14;22.60;;;15.80;;
34134;SDS011;20410;55.578;12.968;2024-01-11T01:10:39;21.30;;;14.80;;
34134;SDS011;20410;55.578;12.968;2024-01-11T01:13:05;24.00;;;15.33;;
34134;SDS011;20410;55.578;12.968;2024-01-11T01:15:30;21.47;;;15.10;;
34134;SDS011;20410;55.578;12.968;2024-01-11T01:17:56;24.13;;;17.20;;
34134;SDS011;20410;55.578;12.968;2024-01-11T01:20:22;26.50;;;16.63;;
34134;SDS011;20410;55.578;12.968;2024-01-11T01:22:47;24.80;;;16.77;;
34134;SDS011;20410;55.578;12.968;2024-01-11T01:25:14;24.47;;;15.63;;
34134;SDS011;20410;55.578;12.968;2024-01-11T01:27:39;24.20;;;15.90;;
34134;SDS011;20410;55.578;12.968;2024-01-11T01:30:05;26.23;;;17.30;;
34134;SDS011;20410;55.578;12.968;2024-01-11T01:32:31;22.50;;;15.97;;
34134;SDS011;20410;55.578;12.968;2024-01-11T01:34:57;28.03;;;16.13;;
34134;SDS011;20410;55.578;12.968;2024-01-11T01:37:23;26.63;;;16.43;;
34134;SDS011;20410;55.578;12.968;2024-01-11T01:39:48;24.23;;;15.07;;
34134;SDS011;20410;55.578;12.968;2024-01-11T01:42:14;18.53;;;11.93;;
34134;SDS011;20410;55.578;12.968;2024-01-11T01:44:39;16.93;;;13.17;;
34134;SDS011;20410;55.578;12.968;2024-01-11T01:47:06;24.57;;;14.73;;
34134;SDS011;20410;55.578;12.968;2024-01-11T01:49:33;18.47;;;13.00;;
34134;SDS011;20410;55.578;12.968;2024-01-11T01:51:59;15.83;;;10.63;;
34134;SDS011;20410;55.578;12.968;2024-01-11T01:54:25;15.90;;;11.53;;
34134;SDS011;20410;55.578;12.968;2024-01-11T01:56:51;19.07;;;12.60;;
34134;SDS011;20410;55.578;12.968;2024-01-11T01:59:18;20.47;;;14.03;;
34134;SDS011;20410;55.578;12.968;2024-01-11T02:01:45;19.80;;;13.97;;
34134;SDS011;20410;55.578;12.968;2024-01-11T02:04:11;19.30;;;12.93;;
34134;SDS011;20410;55.578;12.968;2024-01-11T02:06:36;20.73;;;12.70;;
34134;SDS011;20410;55.578;12.968;2024-01-11T02:09:03;19.93;;;12.27;;
34134;SDS011;20410;55.578;12.968;2024-01-11T02:11:29;19.53;;;12.53;;
34134;SDS011;20410;55.578;12.968;2024-01-11T02:13:55;20.53;;;12.40;;
34134;SDS011;20410;55.578;12.968;2024-01-11T02:16:22;18.33;;;12.50;;
34134;SDS011;20410;55.578;12.968;2024-01-11T02:18:48;23.77;;;14.27;;
34134;SDS011;20410;55.578;12.968;2024-01-11T02:21:14;26.60;;;14.03;;
34134;SDS011;20410;55.578;12.968;2024-01-11T02:23:44;21.63;;;14.57;;
34134;SDS011;20410;55.578;12.968;2024-01-11T02:26:30;21.30;;;13.80;;
34134;SDS011;20410;55.578;12.968;2024-01-11T02:28:56;22.33;;;13.30;;
34134;SDS011;20410;55.578;12.968;2024-01-11T02:31:21;21.60;;;13.83;;
34134;SDS011;20410;55.578;12.968;2024-01-11T02:33:47;25.90;;;14.30;;
34134;SDS011;20410;55.578;12.968;2024-01-11T02:36:13;21.93;;;13.10;;
34134;SDS011;20410;55.578;12.968;2024-01-11T02:38:39;19.87;;;11.83;;
34134;SDS011;20410;55.578;12.968;2024-01-11T02:41:07;17.90;;;11.77;;
34134;SDS011;20410;55.578;12.968;2024-01-11T02:43:33;25.43;;;12.53;;
34134;SDS011;20410;55.578;12.968;2024-01-11T02:46:01;22.63;;;11.63;;
34134;SDS011;20410;55.578;12.968;2024-01-11T02:48:27;28.30;;;14.13;;
34134;SDS011;20410;55.578;12.968;2024-01-11T02:50:54;26.97;;;13.83;;
34134;SDS011;20410;55.578;12.968;2024-01-11T02:53:20;30.40;;;14.77;;
34134;SDS011;20410;55.578;12.968;2024-01-11T02:55:46;30.93;;;15.00;;
34134;SDS011;20410;55.578;12.968;2024-01-11T02:58:11;31.93;;;15.43;;
34134;SDS011;20410;55.578;12.968;2024-01-11T03:00:37;33.43;;;15.10;;
34134;SDS011;20410;55.578;12.968;2024-01-11T03:03:02;26.37;;;15.00;;
34134;SDS011;20410;55.578;12.968;2024-01-11T03:05:28;29.97;;;14.80;;
34134;SDS011;20410;55.578;12.968;2024-01-11T03:07:54;37.83;;;16.60;;
34134;SDS011;20410;55.578;12.968;2024-01-11T03:10:19;28.43;;;15.83;;
34134;SDS011;20410;55.578;12.968;2024-01-11T03:12:45;36.77;;;14.93;;
34134;SDS011;20410;55.578;12.968;2024-01-11T03:15:10;47.17;;;17.50;;
34134;SDS011;20410;55.578;12.968;2024-01-11T03:17:36;45.20;;;15.40;;
34134;SDS011;20410;55.578;12.968;2024-01-11T03:20:01;41.00;;;17.57;;
34134;SDS011;20410;55.578;12.968;2024-01-11T03:22:29;47.80;;;16.83;;
34134;SDS011;20410;55.578;12.968;2024-01-11T03:24:55;32.57;;;15.23;;
34134;SDS011;20410;55.578;12.968;2024-01-11T03:27:20;43.33;;;15.87;;
34134;SDS011;20410;55.578;12.968;2024-01-11T03:29:47;40.50;;;16.03;;
34134;SDS011;20410;55.578;12.968;2024-01-11T03:32:14;33.87;;;14.97;;
34134;SDS011;20410;55.578;12.968;2024-01-11T03:34:40;38.10;;;14.70;;
34134;SDS011;20410;55.578;12.968;2024-01-11T03:37:05;46.87;;;16.10;;
34134;SDS011;20410;55.578;12.968;2024-01-11T03:39:31;33.93;;;14.63;;
34134;SDS011;20410;55.578;12.968;2024-01-11T03:41:56;41.37;;;14.60;;
34134;SDS011;20410;55.578;12.968;2024-01-11T03:44:22;45.87;;;14.80;;
34134;SDS011;20410;55.578;12.968;2024-01-11T03:46:47;27.70;;;12.27;;
34134;SDS011;20410;55.578;12.968;2024-01-11T03:49:13;31.77;;;12.37;;
34134;SDS011;20410;55.578;12.968;2024-01-11T03:51:39;33.60;;;13.77;;
34134;SDS011;20410;55.578;12.968;2024-01-11T03:54:04;28.73;;;12.60;;
34134;SDS011;20410;55.578;12.968;2024-01-11T03:56:30;38.37;;;15.20;;
34134;SDS011;20410;55.578;12.968;2024-01-11T03:58:56;33.30;;;14.80;;
34134;SDS011;20410;55.578;12.968;2024-01-11T04:01:21;27.63;;;13.47;;
34134;SDS011;20410;55.578;12.968;2024-01-11T04:03:47;25.13;;;11.97;;
34134;SDS011;20410;55.578;12.968;2024-01-11T04:06:21;24.00;;;12.23;;
34134;SDS011;20410;55.578;12.968;2024-01-11T04:08:48;27.87;;;11.57;;
34134;SDS011;20410;55.578;12.968;2024-01-11T04:11:13;21.00;;;12.60;;
34134;SDS011;20410;55.578;12.968;2024-01-11T04:13:39;21.03;;;11.47;;
34134;SDS011;20410;55.578;12.968;2024-01-11T04:16:05;20.17;;;11.27;;
34134;SDS011;20410;55.578;12.968;2024-01-11T04:18:31;19.57;;;10.93;;
34134;SDS011;20410;55.578;12.968;2024-01-11T04:20:57;17.93;;;10.17;;
34134;SDS011;20410;55.578;12.968;2024-01-11T04:23:23;12.83;;;8.30;;
34134;SDS011;20410;55.578;12.968;2024-01-11T04:25:49;18.87;;;10.20;;
34134;SDS011;20410;55.578;12.968;2024-01-11T04:28:18;19.67;;;10.60;;
34134;SDS011;20410;55.578;12.968;2024-01-11T04:30:43;17.73;;;10.47;;
34134;SDS011;20410;55.578;12.968;2024-01-11T04:33:09;20.57;;;11.40;;
34134;SDS011;20410;55.578;12.968;2024-01-11T04:35:35;19.60;;;10.70;;
34134;SDS011;20410;55.578;12.968;2024-01-11T04:38:01;16.70;;;9.90;;
34134;SDS011;20410;55.578;12.968;2024-01-11T04:40:27;18.23;;;9.83;;
34134;SDS011;20410;55.578;12.968;2024-01-11T04:42:52;19.33;;;9.03;;
34134;SDS011;20410;55.578;12.968;2024-01-11T04:45:18;13.43;;;9.23;;
34134;SDS011;20410;55.578;12.968;2024-01-11T04:47:43;11.80;;;8.17;;
34134;SDS011;20410;55.578;12.968;2024-01-11T04:50:09;9.47;;;7.13;;
34134;SDS011;20410;55.578;12.968;2024-01-11T04:52:34;11.87;;;8.70;;
34134;SDS011;20410;55.578;12.968;2024-01-11T04:55:00;10.40;;;7.30;;
34134;SDS011;20410;55.578;12.968;2024-01-11T04:57:26;9.60;;;6.53;;
34134;SDS011;20410;55.578;12.968;2024-01-11T04:59:51;8.07;;;6.40;;
34134;SDS011;20410;55.578;12.968;2024-01-11T05:02:20;7.23;;;4.90;;
34134;SDS011;20410;55.578;12.968;2024-01-11T05:04:46;7.07;;;5.23;;
34134;SDS011;20410;55.578;12.968;2024-01-11T05:07:11;6.77;;;4.93;;
34134;SDS011;20410;55.578;12.968;2024-01-11T05:09:37;6.63;;;4.97;;
34134;SDS011;20410;55.578;12.968;2024-01-11T05:12:03;6.80;;;4.47;;
34134;SDS011;20410;55.578;12.968;2024-01-11T05:14:29;5.33;;;4.60;;
34134;SDS011;20410;55.578;12.968;2024-01-11T05:16:55;6.23;;;5.57;;
34134;SDS011;20410;55.578;12.968;2024-01-11T05:19:21;4.77;;;3.93;;
34134;SDS011;20410;55.578;12.968;2024-01-11T05:21:46;5.43;;;4.90;;
34134;SDS011;20410;55.578;12.968;2024-01-11T05:24:12;7.93;;;5.70;;
34134;SDS011;20410;55.578;12.968;2024-01-11T05:26:37;6.23;;;4.73;;
34134;SDS011;20410;55.578;12.968;2024-01-11T05:29:03;10.03;;;5.67;;
34134;SDS011;20410;55.578;12.968;2024-01-11T05:31:29;7.73;;;5.27;;
34134;SDS011;20410;55.578;12.968;2024-01-11T05:33:55;7.23;;;4.40;;
34134;SDS011;20410;55.578;12.968;2024-01-11T05:36:20;6.47;;;4.60;;
34134;SDS011;20410;55.578;12.968;2024-01-11T05:38:46;4.77;;;4.13;;
34134;SDS011;20410;55.578;12.968;2024-01-11T05:41:12;5.17;;;3.90;;
34134;SDS011;20410;55.578;12.968;2024-01-11T05:43:38;5.23;;;4.03;;
34134;SDS011;20410;55.578;12.968;2024-01-11T05:46:04;6.13;;;4.67;;
34134;SDS011;20410;55.578;12.968;2024-01-11T05:48:31;5.50;;;4.63;;
34134;SDS011;20410;55.578;12.968;2024-01-11T05:50:57;6.43;;;5.00;;
34134;SDS011;20410;55.578;12.968;2024-01-11T05:53:23;6.23;;;4.70;;
34134;SDS011;20410;55.578;12.968;2024-01-11T05:55:49;7.83;;;5.27;;
34134;SDS011;20410;55.578;12.968;2024-01-11T05:58:15;6.43;;;5.07;;
34134;SDS011;20410;55.578;12.968;2024-01-11T06:00:40;8.77;;;5.83;;
34134;SDS011;20410;55.578;12.968;2024-01-11T06:03:06;8.40;;;5.40;;
34134;SDS011;20410;55.578;12.968;2024-01-11T06:05:32;5.70;;;3.90;;
34134;SDS011;20410;55.578;12.968;2024-01-11T06:07:58;7.80;;;4.63;;
34134;SDS011;20410;55.578;12.968;2024-01-11T06:10:24;6.03;;;4.40;;
34134;SDS011;20410;55.578;12.968;2024-01-11T06:12:49;4.57;;;3.97;;
34134;SDS011;20410;55.578;12.968;2024-01-11T06:15:15;4.43;;;4.03;;
34134;SDS011;20410;55.578;12.968;2024-01-11T06:17:40;5.03;;;4.00;;
34134;SDS011;20410;55.578;12.968;2024-01-11T06:20:06;4.30;;;3.33;;
34134;SDS011;20410;55.578;12.968;2024-01-11T06:22:32;4.60;;;3.60;;
34134;SDS011;20410;55.578;12.968;2024-01-11T06:24:57;5.53;;;3.53;;
34134;SDS011;20410;55.578;12.968;2024-01-11T06:27:24;6.47;;;4.33;;
34134;SDS011;20410;55.578;12.968;2024-01-11T06:29:50;4.63;;;3.57;;
34134;SDS011;20410;55.578;12.968;2024-01-11T06:32:15;6.23;;;4.10;;
34134;SDS011;20410;55.578;12.968;2024-01-11T06:34:41;4.67;;;3.80;;
34134;SDS011;20410;55.578;12.968;2024-01-11T06:37:10;5.13;;;3.40;;
34134;SDS011;20410;55.578;12.968;2024-01-11T06:39:36;5.70;;;3.73;;
34134;SDS011;20410;55.578;12.968;2024-01-11T06:42:02;4.97;;;4.10;;
34134;SDS011;20410;55.578;12.968;2024-01-11T06:44:27;5.67;;;4.60;;
34134;SDS011;20410;55.578;12.968;2024-01-11T06:46:53;5.80;;;4.40;;
34134;SDS011;20410;55.578;12.968;2024-01-11T06:49:18;6.97;;;4.93;;
34134;SDS011;20410;55.578;12.968;2024-01-11T06:51:44;5.97;;;5.20;;
34134;SDS011;20410;55.578;12.968;2024-01-11T06:54:09;7.33;;;5.00;;
34134;SDS011;20410;55.578;12.968;2024-01-11T06:56:35;5.70;;;4.20;;
34134;SDS011;20410;55.578;12.968;2024-01-11T06:59:01;8.07;;;4.70;;
34134;SDS011;20410;55.578;12.968;2024-01-11T07:01:26;4.70;;;3.43;;
34134;SDS011;20410;55.578;12.968;2024-01-11T07:03:52;3.60;;;3.30;;
34134;SDS011;20410;55.578;12.968;2024-01-11T07:06:17;3.40;;;3.10;;
34134;SDS011;20410;55.578;12.968;2024-01-11T07:08:43;3.30;;;3.03;;
34134;SDS011;20410;55.578;12.968;2024-01-11T07:11:09;4.07;;;3.57;;
34134;SDS011;20410;55.578;12.968;2024-01-11T07:13:34;4.03;;;3.30;;
34134;SDS011;20410;55.578;12.968;2024-01-11T07:16:00;5.07;;;3.90;;
34134;SDS011;20410;55.578;12.968;2024-01-11T07:18:28;4.57;;;3.27;;
34134;SDS011;20410;55.578;12.968;2024-01-11T07:20:55;3.33;;;3.03;;
34134;SDS011;20410;55.578;12.968;2024-01-11T07:23:21;4.50;;;3.33;;
34134;SDS011;20410;55.578;12.968;2024-01-11T07:25:47;3.53;;;3.20;;
34134;SDS011;20410;55.578;12.968;2024-01-11T07:28:12;4.13;;;3.33;;
34134;SDS011;20410;55.578;12.968;2024-01-11T07:30:38;3.83;;;3.47;;
34134;SDS011;20410;55.578;12.968;2024-01-11T07:33:04;3.13;;;2.80;;
34134;SDS011;20410;55.578;12.968;2024-01-11T07:35:30;3.40;;;2.40;;
34134;SDS011;20410;55.578;12.968;2024-01-11T07:37:56;4.00;;;3.20;;
34134;SDS011;20410;55.578;12.968;2024-01-11T07:40:22;3.37;;;2.80;;
34134;SDS011;20410;55.578;12.968;2024-01-11T07:42:48;3.47;;;3.17;;
34134;SDS011;20410;55.578;12.968;2024-01-11T07:45:14;3.37;;;3.07;;
34134;SDS011;20410;55.578;12.968;2024-01-11T07:47:40;3.20;;;2.87;;
34134;SDS011;20410;55.578;12.968;2024-01-11T07:50:06;4.93;;;3.10;;
34134;SDS011;20410;55.578;12.968;2024-01-11T07:52:35;3.20;;;2.90;;
34134;SDS011;20410;55.578;12.968;2024-01-11T07:55:01;5.33;;;3.20;;
34134;SDS011;20410;55.578;12.968;2024-01-11T07:57:33;4.20;;;3.10;;
34134;SDS011;20410;55.578;12.968;2024-01-11T07:59:59;3.53;;;2.90;;
34134;SDS011;20410;55.578;12.968;2024-01-11T08:02:26;3.50;;;3.20;;
34134;SDS011;20410;55.578;12.968;2024-01-11T08:04:52;3.50;;;3.20;;
34134;SDS011;20410;55.578;12.968;2024-01-11T08:07:17;2.97;;;2.63;;
34134;SDS011;20410;55.578;12.968;2024-01-11T08:09:43;3.70;;;2.90;;
34134;SDS011;20410;55.578;12.968;2024-01-11T08:12:12;2.90;;;2.60;;
34134;SDS011;20410;55.578;12.968;2024-01-11T08:14:41;5.43;;;3.30;;
34134;SDS011;20410;55.578;12.968;2024-01-11T08:17:07;2.77;;;2.50;;
34134;SDS011;20410;55.578;12.968;2024-01-11T08:19:33;4.10;;;3.40;;
34134;SDS011;20410;55.578;12.968;2024-01-11T08:21:59;4.30;;;3.63;;
34134;SDS011;20410;55.578;12.968;2024-01-11T08:24:24;4.43;;;3.77;;
34134;SDS011;20410;55.578;12.968;2024-01-11T08:26:50;4.90;;;3.50;;
34134;SDS011;20410;55.578;12.968;2024-01-11T08:29:16;3.17;;;2.87;;
34134;SDS011;20410;55.578;12.968;2024-01-11T08:31:44;4.63;;;3.00;;
34134;SDS011;20410;55.578;12.968;2024-01-11T08:34:09;3.50;;;3.20;;
34134;SDS011;20410;55.578;12.968;2024-01-11T08:36:35;3.87;;;2.93;;
34134;SDS011;20410;55.578;12.968;2024-01-11T08:39:07;3.50;;;2.70;;
34134;SDS011;20410;55.578;12.968;2024-01-11T08:41:36;5.83;;;3.10;;
34134;SDS011;20410;55.578;12.968;2024-01-11T08:44:02;3.77;;;2.83;;
34134;SDS011;20410;55.578;12.968;2024-01-11T08:46:30;3.83;;;3.40;;
34134;SDS011;20410;55.578;12.968;2024-01-11T08:48:58;3.70;;;3.37;;
34134;SDS011;20410;55.578;12.968;2024-01-11T08:51:24;3.83;;;3.00;;
34134;SDS011;20410;55.578;12.968;2024-01-11T08:53:49;3.53;;;3.23;;
34134;SDS011;20410;55.578;12.968;2024-01-11T08:56:15;4.23;;;3.20;;
34134;SDS011;20410;55.578;12.968;2024-01-11T08:58:42;3.33;;;3.03;;
34134;SDS011;20410;55.578;12.968;2024-01-11T09:01:07;4.13;;;3.10;;
34134;SDS011;20410;55.578;12.968;2024-01-11T09:03:33;3.50;;;3.20;;
34134;SDS011;20410;55.578;12.968;2024-01-11T09:06:00;5.57;;;3.23;;
34134;SDS011;20410;55.578;12.968;2024-01-11T09:08:26;4.83;;;4.33;;
34134;SDS011;20410;55.578;12.968;2024-01-11T09:10:51;6.17;;;3.47;;
34134;SDS011;20410;55.578;12.968;2024-01-11T09:13:18;5.47;;;3.90;;
34134;SDS011;20410;55.578;12.968;2024-01-11T09:15:43;3.00;;;2.80;;
34134;SDS011;20410;55.578;12.968;2024-01-11T09:18:09;3.40;;;2.83;;
34134;SDS011;20410;55.578;12.968;2024-01-11T09:20:35;6.13;;;3.67;;
34134;SDS011;20410;55.578;12.968;2024-01-11T09:23:00;4.10;;;3.70;;
34134;SDS011;20410;55.578;12.968;2024-01-11T09:25:32;3.33;;;3.03;;
34134;SDS011;20410;55.578;12.968;2024-01-11T09:27:58;4.10;;;3.80;;
34134;SDS011;20410;55.578;12.968;2024-01-11T09:30:24;3.63;;;3.33;;
34134;SDS011;20410;55.578;12.968;2024-01-11T09:32:49;3.80;;;3.40;;
34134;SDS011;20410;55.578;12.968;2024-01-11T09:35:15;3.70;;;3.23;;
34134;SDS011;20410;55.578;12.968;2024-01-11T09:37:41;4.47;;;3.03;;
34134;SDS011;20410;55.578;12.968;2024-01-11T09:40:07;3.93;;;2.90;;
34134;SDS011;20410;55.578;12.968;2024-01-11T09:42:36;4.30;;;3.30;;
34134;SDS011;20410;55.578;12.968;2024-01-11T09:45:02;3.30;;;3.00;;
34134;SDS011;20410;55.578;12.968;2024-01-11T09:47:31;3.83;;;2.50;;
34134;SDS011;20410;55.578;12.968;2024-01-11T09:49:58;5.33;;;2.80;;
34134;SDS011;20410;55.578;12.968;2024-01-11T09:52:27;2.90;;;2.70;;
34134;SDS011;20410;55.578;12.968;2024-01-11T09:54:56;5.97;;;2.93;;
34134;SDS011;20410;55.578;12.968;2024-01-11T09:57:24;3.27;;;2.47;;
34134;SDS011;20410;55.578;12.968;2024-01-11T09:59:54;3.00;;;2.53;;
34134;SDS011;20410;55.578;12.968;2024-01-11T10:02:21;2.83;;;2.43;;
34134;SDS011;20410;55.578;12.968;2024-01-11T10:04:48;3.60;;;2.70;;
34134;SDS011;20410;55.578;12.968;2024-01-11T10:07:14;3.53;;;2.43;;
34134;SDS011;20410;55.578;12.968;2024-01-11T10:09:43;4.40;;;2.87;;
34134;SDS011;20410;55.578;12.968;2024-01-11T10:12:09;4.00;;;3.00;;
34134;SDS011;20410;55.578;12.968;2024-01-11T10:14:35;2.97;;;2.37;;
34134;SDS011;20410;55.578;12.968;2024-01-11T10:17:00;2.60;;;2.40;;
34134;SDS011;20410;55.578;12.968;2024-01-11T10:19:26;3.90;;;2.90;;
34134;SDS011;20410;55.578;12.968;2024-01-11T10:21:52;2.83;;;2.63;;
34134;SDS011;20410;55.578;12.968;2024-01-11T10:24:18;2.77;;;2.40;;
34134;SDS011;20410;55.578;12.968;2024-01-11T10:26:45;4.17;;;2.60;;
34134;SDS011;20410;55.578;12.968;2024-01-11T10:29:11;4.77;;;2.87;;
34134;SDS011;20410;55.578;12.968;2024-01-11T10:31:38;3.57;;;2.63;;
34134;SDS011;20410;55.578;12.968;2024-01-11T10:34:03;4.17;;;3.00;;
34134;SDS011;20410;55.578;12.968;2024-01-11T10:36:31;4.93;;;2.90;;
34134;SDS011;20410;55.578;12.968;2024-01-11T10:38:57;4.47;;;2.87;;
34134;SDS011;20410;55.578;12.968;2024-01-11T10:41:29;4.70;;;3.40;;
34134;SDS011;20410;55.578;12.968;2024-01-11T10:43:57;3.47;;;3.17;;
34134;SDS011;20410;55.578;12.968;2024-01-11T10:46:25;4.37;;;3.73;;
34134;SDS011;20410;55.578;12.968;2024-01-11T10:48:54;3.13;;;2.83;;
34134;SDS011;20410;55.578;12.968;2024-01-11T10:51:22;3.93;;;2.73;;
34134;SDS011;20410;55.578;12.968;2024-01-11T10:53:49;3.60;;;3.27;;
34134;SDS011;20410;55.578;12.968;2024-01-11T10:56:16;3.90;;;3.40;;
34134;SDS011;20410;55.578;12.968;2024-01-11T10:58:43;5.47;;;3.23;;
34134;SDS011;20410;55.578;12.968;2024-01-11T11:01:12;4.57;;;3.70;;
34134;SDS011;20410;55.578;12.968;2024-01-11T11:03:39;6.10;;;3.93;;
34134;SDS011;20410;55.578;12.968;2024-01-11T11:06:07;3.67;;;3.13;;
34134;SDS011;20410;55.578;12.968;2024-01-11T11:08:34;4.77;;;3.03;;
34134;SDS011;20410;55.578;12.968;2024-01-11T11:11:02;3.80;;;2.90;;
34134;SDS011;20410;55.578;12.968;2024-01-11T11:13:31;4.07;;;3.37;;
34134;SDS011;20410;55.578;12.968;2024-01-11T11:15:57;5.13;;;3.27;;
34134;SDS011;20410;55.578;12.968;2024-01-11T11:18:23;6.13;;;4.17;;
34134;SDS011;20410;55.578;12.968;2024-01-11T11:20:50;5.47;;;2.93;;
34134;SDS011;20410;55.578;12.968;2024-01-11T11:23:16;4.33;;;3.87;;
34134;SDS011;20410;55.578;12.968;2024-01-11T11:25:47;5.07;;;3.33;;
34134;SDS011;20410;55.578;12.968;2024-01-11T11:28:13;5.70;;;3.67;;
34134;SDS011;20410;55.578;12.968;2024-01-11T11:30:42;4.63;;;3.80;;
34134;SDS011;20410;55.578;12.968;2024-01-11T11:33:09;4.77;;;3.83;;
34134;SDS011;20410;55.578;12.968;2024-01-11T11:35:45;4.90;;;3.73;;
34134;SDS011;20410;55.578;12.968;2024-01-11T11:38:21;5.03;;;4.40;;
34134;SDS011;20410;55.578;12.968;2024-01-11T11:40:48;4.97;;;4.47;;
34134;SDS011;20410;55.578;12.968;2024-01-11T11:43:16;7.47;;;4.47;;
34134;SDS011;20410;55.578;12.968;2024-01-11T11:45:42;6.40;;;4.80;;
34134;SDS011;20410;55.578;12.968;2024-01-11T11:51:06;6.57;;;5.87;;
34134;SDS011;20410;55.578;12.968;2024-01-11T11:53:35;6.37;;;4.60;;
34134;SDS011;20410;55.578;12.968;2024-01-11T11:56:05;7.87;;;6.13;;
34134;SDS011;20410;55.578;12.968;2024-01-11T11:58:32;6.80;;;5.47;;
34134;SDS011;20410;55.578;12.968;2024-01-11T12:00:59;8.17;;;6.33;;
34134;SDS011;20410;55.578;12.968;2024-01-11T12:03:26;7.97;;;5.77;;
34134;SDS011;20410;55.578;12.968;2024-01-11T12:05:55;8.63;;;6.27;;
34134;SDS011;20410;55.578;12.968;2024-01-11T12:08:21;9.60;;;6.60;;
34134;SDS011;20410;55.578;12.968;2024-01-11T12:10:47;6.40;;;5.63;;
34134;SDS011;20410;55.578;12.968;2024-01-11T12:13:13;8.67;;;5.70;;
34134;SDS011;20410;55.578;12.968;2024-01-11T12:15:38;9.57;;;5.73;;
34134;SDS011;20410;55.578;12.968;2024-01-11T12:18:05;9.33;;;6.90;;
34134;SDS011;20410;55.578;12.968;2024-01-11T12:20:32;9.20;;;6.70;;
34134;SDS011;20410;55.578;12.968;2024-01-11T12:22:58;9.73;;;6.40;;
34134;SDS011;20410;55.578;12.968;2024-01-11T12:25:24;9.20;;;5.40;;
34134;SDS011;20410;55.578;12.968;2024-01-11T12:27:50;7.23;;;5.97;;
34134;SDS011;20410;55.578;12.968;2024-01-11T12:30:18;7.83;;;6.73;;
34134;SDS011;20410;55.578;12.968;2024-01-11T12:32:46;7.57;;;6.57;;
34134;SDS011;20410;55.578;12.968;2024-01-11T12:35:12;7.93;;;6.20;;
34134;SDS011;20410;55.578;12.968;2024-01-11T12:37:38;7.83;;;6.13;;
34134;SDS011;20410;55.578;12.968;2024-01-11T12:40:03;8.00;;;5.63;;
34134;SDS011;20410;55.578;12.968;2024-01-11T12:42:31;9.07;;;5.97;;
34134;SDS011;20410;55.578;12.968;2024-01-11T12:44:59;9.27;;;7.17;;
34134;SDS011;20410;55.578;12.968;2024-01-11T12:47:25;9.57;;;6.67;;
34134;SDS011;20410;55.578;12.968;2024-01-11T12:49:51;10.80;;;6.77;;
34134;SDS011;20410;55.578;12.968;2024-01-11T12:52:17;10.77;;;7.73;;
34134;SDS011;20410;55.578;12.968;2024-01-11T12:54:44;8.97;;;6.27;;
34134;SDS011;20410;55.578;12.968;2024-01-11T12:57:12;9.63;;;6.17;;
34134;SDS011;20410;55.578;12.968;2024-01-11T12:59:44;10.40;;;6.83;;
34134;SDS011;20410;55.578;12.968;2024-01-11T13:02:10;11.37;;;6.97;;
34134;SDS011;20410;55.578;12.968;2024-01-11T13:04:39;8.17;;;5.40;;
34134;SDS011;20410;55.578;12.968;2024-01-11T13:07:05;9.33;;;6.50;;
34134;SDS011;20410;55.578;12.968;2024-01-11T13:09:32;9.23;;;7.50;;
34134;SDS011;20410;55.578;12.968;2024-01-11T13:11:58;13.57;;;7.73;;
34134;SDS011;20410;55.578;12.968;2024-01-11T13:14:24;10.40;;;7.00;;
34134;SDS011;20410;55.578;12.968;2024-01-11T13:16:50;11.77;;;7.93;;
34134;SDS011;20410;55.578;12.968;2024-01-11T13:19:16;18.10;;;8.03;;
34134;SDS011;20410;55.578;12.968;2024-01-11T13:21:41;12.37;;;7.37;;
34134;SDS011;20410;55.578;12.968;2024-01-11T13:24:07;10.83;;;6.30;;
34134;SDS011;20410;55.578;12.968;2024-01-11T13:26:33;13.57;;;7.57;;
34134;SDS011;20410;55.578;12.968;2024-01-11T13:28:59;15.23;;;7.70;;
34134;SDS011;20410;55.578;12.968;2024-01-11T13:31:25;10.63;;;6.93;;
34134;SDS011;20410;55.578;12.968;2024-01-11T13:33:50;10.17;;;7.10;;
34134;SDS011;20410;55.578;12.968;2024-01-11T13:36:17;10.60;;;6.57;;
34134;SDS011;20410;55.578;12.968;2024-01-11T13:38:43;10.10;;;6.13;;
34134;SDS011;20410;55.578;12.968;2024-01-11T13:41:08;12.07;;;7.73;;
34134;SDS011;20410;55.578;12.968;2024-01-11T13:43:34;14.20;;;7.23;;
34134;SDS011;20410;55.578;12.968;2024-01-11T13:46:02;12.13;;;7.83;;
34134;SDS011;20410;55.578;12.968;2024-01-11T13:48:29;15.83;;;8.40;;
34134;SDS011;20410;55.578;12.968;2024-01-11T13:50:58;12.50;;;7.70;;
34134;SDS011;20410;55.578;12.968;2024-01-11T13:53:25;16.33;;;7.40;;
34134;SDS011;20410;55.578;12.968;2024-01-11T13:55:50;10.80;;;6.67;;
34134;SDS011;20410;55.578;12.968;2024-01-11T13:58:16;12.10;;;7.47;;
34134;SDS011;20410;55.578;12.968;2024-01-11T14:00:43;13.47;;;7.80;;
34134;SDS011;20410;55.578;12.968;2024-01-11T14:03:09;12.13;;;6.90;;
34134;SDS011;20410;55.578;12.968;2024-01-11T14:05:35;13.83;;;7.80;;
34134;SDS011;20410;55.578;12.968;2024-01-11T14:08:01;13.47;;;7.77;;
34134;SDS011;20410;55.578;12.968;2024-01-11T14:10:30;12.17;;;7.73;;
34134;SDS011;20410;55.578;12.968;2024-01-11T14:12:57;13.27;;;6.70;;
34134;SDS011;20410;55.578;12.968;2024-01-11T14:15:23;11.27;;;7.27;;
34134;SDS011;20410;55.578;12.968;2024-01-11T14:17:49;10.97;;;7.27;;
34134;SDS011;20410;55.578;12.968;2024-01-11T14:20:15;16.43;;;7.47;;
34134;SDS011;20410;55.578;12.968;2024-01-11T14:22:40;14.50;;;7.23;;